createdAt,value
2019-04-05T00:05:17.253Z,11.75
2019-04-05T00:15:21.122Z,11.63
2019-04-05T00:25:26.110Z,11.19
2019-04-05T00:35:30.225Z,11.12
2019-04-05T00:45:34.285Z,10.75
2019-04-05T00:55:38.246Z,10.81
2019-04-05T01:05:43.364Z,10.81
2019-04-05T01:15:48.319Z,10.56
2019-04-05T01:25:53.330Z,10.44
2019-04-05T01:35:57.242Z,10.25
2019-04-05T01:46:01.256Z,10.13
2019-04-05T01:56:05.246Z,9.94
2019-04-05T02:06:10.140Z,9.56
2019-04-05T02:16:14.244Z,9.50
2019-04-05T02:26:18.227Z,9.25
2019-04-05T02:36:23.224Z,9.31
2019-04-05T02:46:31.469Z,9.06
2019-04-05T02:56:36.145Z,9.13
2019-04-05T03:06:41.295Z,9.00
2019-04-05T03:16:46.391Z,9.13
2019-04-05T03:26:51.378Z,9.00
2019-04-05T03:36:55.264Z,9.19
2019-04-05T03:46:59.119Z,8.81
2019-04-05T03:57:03.121Z,8.81
2019-04-05T04:07:08.242Z,8.94
2019-04-05T04:17:13.497Z,8.69
2019-04-05T04:27:19.228Z,8.88
2019-04-05T04:37:23.096Z,8.75
2019-04-05T04:47:28.098Z,8.75
2019-04-05T04:57:32.096Z,9.31
2019-04-05T05:07:37.422Z,9.31
2019-04-05T05:17:41.107Z,9.38
2019-04-05T05:27:46.419Z,9.38
2019-04-05T05:37:50.124Z,9.81
2019-04-05T05:47:55.445Z,9.69
2019-04-05T05:57:59.177Z,10.06
2019-04-05T06:08:03.256Z,10.06
2019-04-05T06:18:07.095Z,10.31
2019-04-05T06:28:11.112Z,10.56
2019-04-05T06:38:15.633Z,11.25
2019-04-05T06:48:20.245Z,11.31
2019-04-05T06:58:29.110Z,12.19
2019-04-05T07:08:30.270Z,12.19
2019-04-05T07:18:35.973Z,12.50
2019-04-05T07:28:43.478Z,12.81
2019-04-05T07:38:48.623Z,13.00
2019-04-05T07:48:52.248Z,13.62
2019-04-05T07:58:57.215Z,13.94
2019-04-05T08:09:13.305Z,14.81
2019-04-05T08:19:17.102Z,14.81
2019-04-05T08:29:22.111Z,15.94
2019-04-05T08:39:26.656Z,17.25
2019-04-05T08:49:32.362Z,17.62
2019-04-05T08:59:36.149Z,17.94
2019-04-05T09:09:44.172Z,18.06
2019-04-05T09:19:48.912Z,19.12
2019-04-05T09:29:54.039Z,19.31
2019-04-05T09:39:58.191Z,18.87
2019-04-05T09:50:02.205Z,18.56
2019-04-05T10:00:09.251Z,19.19
2019-04-05T10:10:13.127Z,19.06
2019-04-05T10:20:18.260Z,19.25
2019-04-05T10:30:22.116Z,20.06
2019-04-05T10:40:27.105Z,20.25
2019-04-05T10:50:31.224Z,20.44
2019-04-05T11:00:36.284Z,20.44
2019-04-05T11:10:40.134Z,21.37
2019-04-05T11:20:49.007Z,21.75
2019-04-05T11:30:53.333Z,21.75
2019-04-05T11:40:57.297Z,22.62
2019-04-05T11:51:01.103Z,23.19
2019-04-05T12:01:07.388Z,24.50
2019-04-05T12:20:33.336Z,25.62
2019-04-05T12:30:39.256Z,26.56
2019-04-05T12:40:43.170Z,27.94
2019-04-05T12:51:00.298Z,28.00
2019-04-05T13:00:53.646Z,33.13
2019-04-05T13:10:59.280Z,35.44
2019-04-05T13:21:14.457Z,38.13
2019-04-05T13:31:09.424Z,35.44
2019-04-05T13:41:14.090Z,36.69
2019-04-05T13:51:27.816Z,34.31
2019-04-05T14:01:24.707Z,31.69
2019-04-05T14:11:29.239Z,34.13
2019-04-05T14:21:40.254Z,32.63
2019-04-05T14:31:39.298Z,33.38
2019-04-05T14:41:44.113Z,32.63
2019-04-05T14:51:54.952Z,31.12
2019-04-05T15:01:54.292Z,29.63
2019-04-05T15:11:59.294Z,29.06
2019-04-05T15:22:06.143Z,29.25
2019-04-05T15:32:11.432Z,27.87
2019-04-05T15:42:18.252Z,26.75
2019-04-05T15:52:27.869Z,26.12
2019-04-05T16:02:33.668Z,24.75
2019-04-05T16:12:38.292Z,24.25
2019-04-05T16:22:42.093Z,23.62
2019-04-05T16:32:46.615Z,23.12
2019-04-05T16:43:01.732Z,22.13
2019-04-05T16:52:58.111Z,21.12
2019-04-05T17:03:03.096Z,20.56
2019-04-05T17:13:07.092Z,20.00
2019-04-05T17:23:11.621Z,19.31
2019-04-05T17:33:15.233Z,18.87
2019-04-05T17:43:19.123Z,18.56
2019-04-05T17:53:24.279Z,18.19
2019-04-05T18:03:29.099Z,17.75
2019-04-05T18:13:33.094Z,17.56
2019-04-05T18:23:37.636Z,17.31
2019-04-05T18:33:42.529Z,17.06
2019-04-05T18:43:47.245Z,16.87
2019-04-05T18:53:51.118Z,16.75
2019-04-05T19:03:56.092Z,16.44
2019-04-05T19:14:01.706Z,16.19
2019-04-05T19:24:07.143Z,16.00
2019-04-05T19:54:26.399Z,15.25
2019-04-05T20:04:31.220Z,15.00
2019-04-05T20:14:36.273Z,14.87
2019-04-05T20:24:40.155Z,14.63
2019-04-05T20:34:44.213Z,14.44
2019-04-05T20:44:49.231Z,14.00
2019-04-05T20:54:53.227Z,13.94
2019-04-05T21:04:58.309Z,13.62
2019-04-05T21:15:02.252Z,13.44
2019-04-05T21:25:07.176Z,13.31
2019-04-05T21:35:12.257Z,12.88
2019-04-05T21:45:16.223Z,12.88
2019-04-05T21:55:21.303Z,12.56
2019-04-05T22:05:25.220Z,12.37
2019-04-05T22:15:29.819Z,12.37
2019-04-05T22:25:35.150Z,12.25
2019-04-05T22:35:40.140Z,12.13
2019-04-05T22:45:44.221Z,12.00
2019-04-05T22:55:49.277Z,11.81
2019-04-05T23:05:53.229Z,11.94
2019-04-05T23:15:58.290Z,11.50
2019-04-05T23:26:02.323Z,11.38
2019-04-05T23:36:06.238Z,11.19
2019-04-05T23:46:10.212Z,11.00
2019-04-05T23:56:15.263Z,10.94
